createdAt,value
2023-01-17T00:02:57.947Z,94970.09
2023-01-17T00:06:19.523Z,94973.06
2023-01-17T00:09:41.252Z,94963.81
2023-01-17T00:12:52.655Z,94951.52
2023-01-17T00:15:55.802Z,94950.66
2023-01-17T00:19:17.484Z,94948.14
2023-01-17T00:22:45.390Z,94937.84
2023-01-17T00:26:03.463Z,94930.90
2023-01-17T00:29:06.385Z,94931.48
2023-01-17T00:32:13.207Z,94941.73
2023-01-17T00:35:16.903Z,94940.66
2023-01-17T00:38:22.401Z,94944.02
2023-01-17T00:41:25.264Z,94939.58
2023-01-17T00:44:47.019Z,94942.90
2023-01-17T00:48:08.923Z,94941.98
2023-01-17T00:51:30.696Z,94944.11
2023-01-17T00:54:52.524Z,94948.69
2023-01-17T00:58:14.409Z,94954.23
2023-01-17T01:01:36.208Z,94956.36
2023-01-17T01:04:58.492Z,94961.13
2023-01-17T01:08:20.426Z,94956.44
2023-01-17T01:11:42.344Z,94953.52
2023-01-17T01:15:03.991Z,94946.52
2023-01-17T01:18:27.529Z,94943.10
2023-01-17T01:21:49.270Z,94947.03
2023-01-17T01:25:11.040Z,94944.77
2023-01-17T01:28:34.009Z,94948.30
2023-01-17T01:31:55.611Z,94961.89
2023-01-17T01:34:58.481Z,94963.70
2023-01-17T01:38:02.819Z,94973.80
2023-01-17T01:41:06.796Z,94978.54
2023-01-17T01:44:42.608Z,94984.40
2023-01-17T01:47:47.416Z,94992.91
2023-01-17T01:50:51.196Z,94999.48
2023-01-17T01:54:00.037Z,95001.36
2023-01-17T01:57:08.096Z,95004.86
2023-01-17T02:00:19.381Z,95004.13
2023-01-17T02:03:27.735Z,94996.33
2023-01-17T02:06:35.433Z,94995.45
2023-01-17T02:09:38.579Z,95003.10
2023-01-17T02:12:43.214Z,95001.30
2023-01-17T02:16:16.305Z,94994.58
2023-01-17T02:19:43.833Z,94993.70
2023-01-17T02:22:49.815Z,94998.81
2023-01-17T02:26:29.851Z,95000.52
2023-01-17T02:29:35.726Z,95002.43
2023-01-17T02:32:57.494Z,95002.42
2023-01-17T02:36:19.248Z,95001.44
2023-01-17T02:39:27.127Z,95004.32
2023-01-17T02:42:37.385Z,95003.59
2023-01-17T02:45:40.503Z,95004.34
2023-01-17T02:48:45.015Z,95002.07
2023-01-17T02:51:51.001Z,95001.84
2023-01-17T02:55:01.462Z,95004.39
2023-01-17T02:58:25.655Z,94995.95
2023-01-17T03:01:43.604Z,94995.99
2023-01-17T03:04:50.121Z,95002.67
2023-01-17T03:07:54.013Z,95013.71
2023-01-17T03:10:57.572Z,95012.20
2023-01-17T03:14:00.453Z,94995.98
2023-01-17T03:17:03.583Z,94987.56
2023-01-17T03:20:06.817Z,94995.73
2023-01-17T03:23:09.737Z,94992.98
2023-01-17T03:26:12.756Z,94992.69
2023-01-17T03:29:16.713Z,94997.95
2023-01-17T03:32:19.567Z,94995.77
2023-01-17T03:35:22.527Z,94991.64
2023-01-17T03:38:26.549Z,94993.30
2023-01-17T03:41:29.505Z,95004.78
2023-01-17T03:44:34.323Z,95010.73
2023-01-17T03:47:37.212Z,95008.40
2023-01-17T03:50:40.118Z,95004.10
2023-01-17T03:53:43.345Z,95002.91
2023-01-17T03:56:46.221Z,94996.89
2023-01-17T03:59:49.320Z,94988.46
2023-01-17T04:02:52.189Z,94983.35
2023-01-17T04:05:55.136Z,94981.42
2023-01-17T04:08:57.999Z,94982.36
2023-01-17T04:12:04.378Z,94983.77
2023-01-17T04:15:07.812Z,94983.48
2023-01-17T04:18:12.389Z,94990.48
2023-01-17T04:21:15.338Z,94987.02
2023-01-17T04:24:18.313Z,94979.92
2023-01-17T04:27:21.182Z,94980.23
2023-01-17T04:30:24.378Z,94974.15
2023-01-17T04:33:27.301Z,94969.31
2023-01-17T04:36:30.171Z,94974.11
2023-01-17T04:39:33.043Z,94973.79
2023-01-17T04:42:35.991Z,94980.17
2023-01-17T04:45:38.934Z,94984.96
2023-01-17T04:48:41.762Z,94984.08
2023-01-17T04:51:44.614Z,94982.55
2023-01-17T04:54:51.252Z,94984.27
2023-01-17T04:57:54.703Z,94990.15
2023-01-17T05:01:02.216Z,94987.02
2023-01-17T05:04:05.227Z,94993.23
2023-01-17T05:07:08.312Z,94990.49
2023-01-17T05:10:11.442Z,94990.63
2023-01-17T05:13:14.861Z,94992.81
2023-01-17T05:16:19.489Z,94995.98
2023-01-17T05:19:23.959Z,94997.16
2023-01-17T05:22:26.799Z,94996.70
2023-01-17T05:25:31.764Z,94995.92
2023-01-17T05:28:34.745Z,95001.67
2023-01-17T05:31:38.112Z,95002.84
2023-01-17T05:34:41.095Z,95001.69
2023-01-17T05:37:49.279Z,95002.96
2023-01-17T05:40:52.327Z,95004.89
2023-01-17T05:43:55.168Z,95010.98
2023-01-17T05:46:58.070Z,95013.12
2023-01-17T05:50:00.887Z,95030.31
2023-01-17T05:53:09.388Z,95036.08
2023-01-17T05:56:12.148Z,95040.73
2023-01-17T05:59:17.251Z,95042.01
2023-01-17T06:02:21.685Z,95044.29
2023-01-17T06:05:26.082Z,95043.77
2023-01-17T06:08:28.950Z,95052.48
2023-01-17T06:11:31.798Z,95054.33
2023-01-17T06:14:34.825Z,95053.61
2023-01-17T06:17:37.809Z,95060.54
2023-01-17T06:20:41.744Z,95059.36
2023-01-17T06:23:44.536Z,95062.69
2023-01-17T06:26:47.469Z,95059.41
2023-01-17T06:29:50.389Z,95063.14
2023-01-17T06:32:55.372Z,95059.63
2023-01-17T06:35:58.435Z,95060.89
2023-01-17T06:39:01.362Z,95060.65
2023-01-17T06:42:04.319Z,95059.26
2023-01-17T06:45:08.067Z,95061.39
2023-01-17T06:48:11.149Z,95062.68
2023-01-17T06:51:14.479Z,95063.75
2023-01-17T06:54:18.950Z,95064.41
2023-01-17T06:57:21.844Z,95066.98
2023-01-17T07:00:25.242Z,95073.42
2023-01-17T07:03:28.309Z,95074.52
2023-01-17T07:06:31.216Z,95083.59
2023-01-17T07:09:34.149Z,95092.54
2023-01-17T07:12:36.946Z,95099.43
2023-01-17T07:15:40.400Z,95103.66
2023-01-17T07:18:43.220Z,95106.02
2023-01-17T07:21:46.026Z,95108.88
2023-01-17T07:24:48.864Z,95114.08
2023-01-17T07:27:57.851Z,95121.89
2023-01-17T07:31:08.194Z,95120.56
2023-01-17T07:34:11.117Z,95123.29
2023-01-17T07:37:15.297Z,95126.02
2023-01-17T07:40:20.247Z,95131.00
2023-01-17T07:43:23.270Z,95130.55
2023-01-17T07:46:26.313Z,95128.40
2023-01-17T07:49:29.259Z,95126.14
2023-01-17T07:52:32.283Z,95130.06
2023-01-17T07:55:35.513Z,95130.29
2023-01-17T07:58:38.474Z,95128.38
2023-01-17T08:01:41.705Z,95128.65
2023-01-17T08:04:45.583Z,95133.77
2023-01-17T08:07:48.560Z,95141.06
2023-01-17T08:10:51.752Z,95146.55
2023-01-17T08:13:59.522Z,95145.79
2023-01-17T08:17:12.463Z,95147.35
2023-01-17T08:20:16.662Z,95148.39
2023-01-17T08:23:19.839Z,95149.83
2023-01-17T08:26:23.346Z,95152.02
2023-01-17T08:29:26.515Z,95154.52
2023-01-17T08:32:29.604Z,95152.17
2023-01-17T08:35:33.886Z,95155.23
2023-01-17T08:38:38.547Z,95155.20
2023-01-17T08:41:41.480Z,95158.34
2023-01-17T08:44:44.412Z,95157.58
2023-01-17T08:47:47.473Z,95156.40
2023-01-17T08:50:50.611Z,95161.70
2023-01-17T08:53:55.686Z,95159.73
2023-01-17T08:56:58.756Z,95162.56
2023-01-17T09:00:01.913Z,95170.02
2023-01-17T09:03:04.842Z,95180.73
2023-01-17T09:06:14.193Z,95182.48
2023-01-17T09:09:17.942Z,95184.41
2023-01-17T09:12:22.535Z,95184.23
2023-01-17T09:15:26.106Z,95191.84
2023-01-17T09:18:30.817Z,95197.14
2023-01-17T09:21:33.820Z,95201.23
2023-01-17T09:24:36.806Z,95200.13
2023-01-17T09:27:39.705Z,95199.70
2023-01-17T09:30:42.796Z,95198.78
2023-01-17T09:33:45.821Z,95199.80
2023-01-17T09:36:49.020Z,95202.27
2023-01-17T09:39:52.397Z,95202.80
2023-01-17T09:43:01.560Z,95206.00
2023-01-17T09:46:07.392Z,95208.83
2023-01-17T09:49:21.974Z,95210.77
2023-01-17T09:52:25.181Z,95208.14
2023-01-17T09:55:37.113Z,95206.62
2023-01-17T09:58:58.182Z,95209.35
2023-01-17T10:02:26.735Z,95206.73
2023-01-17T10:06:03.323Z,95207.02
2023-01-17T10:09:23.021Z,95206.23
2023-01-17T10:12:40.199Z,95198.96
2023-01-17T10:16:12.855Z,95195.77
2023-01-17T10:19:51.632Z,95198.29
2023-01-17T10:23:04.041Z,95201.28
2023-01-17T10:26:25.292Z,95211.26
2023-01-17T10:29:33.481Z,95212.02
2023-01-17T10:32:42.594Z,95213.76
2023-01-17T10:35:55.153Z,95213.04
2023-01-17T10:39:02.999Z,95217.00
2023-01-17T10:42:23.504Z,95215.48
2023-01-17T10:45:31.319Z,95217.36
2023-01-17T10:48:45.284Z,95222.30
2023-01-17T10:52:11.929Z,95219.91
2023-01-17T10:55:34.373Z,95219.13
2023-01-17T10:58:37.586Z,95222.50
2023-01-17T11:01:41.758Z,95216.75
2023-01-17T11:04:51.183Z,95224.16
2023-01-17T11:08:07.871Z,95221.70
2023-01-17T11:11:10.890Z,95220.66
2023-01-17T11:14:22.191Z,95229.79
2023-01-17T11:17:27.795Z,95231.84
2023-01-17T11:20:36.215Z,95228.57
2023-01-17T11:23:44.313Z,95223.30
2023-01-17T11:26:49.622Z,95215.27
2023-01-17T11:30:18.160Z,95207.50
2023-01-17T11:33:56.962Z,95204.55
2023-01-17T11:37:29.114Z,95205.48
2023-01-17T11:40:44.416Z,95205.38
2023-01-17T11:43:57.458Z,95211.31
2023-01-17T11:47:13.186Z,95203.77
2023-01-17T11:50:27.416Z,95197.91
2023-01-17T11:53:37.313Z,95189.60
2023-01-17T11:56:45.244Z,95183.49
2023-01-17T11:59:49.581Z,95187.44
2023-01-17T12:03:29.727Z,95180.33
2023-01-17T12:06:58.437Z,95174.73
2023-01-17T12:10:37.483Z,95171.84
2023-01-17T12:14:07.209Z,95170.56
2023-01-17T12:17:22.889Z,95178.09
2023-01-17T12:20:42.506Z,95174.47
2023-01-17T12:24:08.248Z,95178.16
2023-01-17T12:27:35.426Z,95185.84
2023-01-17T12:31:14.986Z,95175.46
2023-01-17T12:34:26.199Z,95168.17
2023-01-17T12:37:57.379Z,95165.61
2023-01-17T12:41:26.752Z,95170.14
2023-01-17T12:44:45.644Z,95175.03
2023-01-17T12:47:50.614Z,95172.50
2023-01-17T12:51:07.043Z,95166.98
2023-01-17T12:54:21.051Z,95169.36
2023-01-17T12:57:33.804Z,95178.05
2023-01-17T13:00:39.196Z,95185.42
2023-01-17T13:03:57.816Z,95182.79
2023-01-17T13:07:00.871Z,95190.48
2023-01-17T13:10:18.550Z,95190.62
2023-01-17T13:13:27.493Z,95195.04
2023-01-17T13:17:00.851Z,95204.02
2023-01-17T13:20:19.404Z,95206.20
2023-01-17T13:23:48.018Z,95205.04
2023-01-17T13:26:50.942Z,95213.50
2023-01-17T13:30:16.210Z,95219.27
2023-01-17T13:33:47.242Z,95216.92
2023-01-17T13:37:18.458Z,95219.24
2023-01-17T13:40:49.161Z,95222.85
2023-01-17T13:44:11.322Z,95225.71
2023-01-17T13:47:17.139Z,95232.11
2023-01-17T13:50:38.958Z,95235.35
2023-01-17T13:53:44.775Z,95240.90
2023-01-17T13:56:47.770Z,95242.94
2023-01-17T13:59:50.671Z,95238.09
2023-01-17T14:02:55.535Z,95231.57
2023-01-17T14:05:58.676Z,95242.03
2023-01-17T14:09:08.062Z,95251.41
2023-01-17T14:12:15.135Z,95257.11
2023-01-17T14:15:28.577Z,95257.23
2023-01-17T14:18:41.666Z,95264.67
2023-01-17T14:21:45.307Z,95273.27
2023-01-17T14:25:03.803Z,95276.58
2023-01-17T14:28:23.405Z,95274.58
2023-01-17T14:31:28.165Z,95281.64
2023-01-17T14:34:31.420Z,95292.61
2023-01-17T14:37:52.216Z,95290.52
2023-01-17T14:41:01.807Z,95298.65
2023-01-17T14:44:04.958Z,95299.81
2023-01-17T14:47:13.903Z,95306.49
2023-01-17T14:50:22.025Z,95302.16
2023-01-17T14:53:28.314Z,95299.77
2023-01-17T14:56:31.486Z,95306.19
2023-01-17T14:59:34.488Z,95302.09
2023-01-17T15:02:44.256Z,95306.14
2023-01-17T15:05:50.991Z,95311.75
2023-01-17T15:08:54.297Z,95306.36
2023-01-17T15:11:58.208Z,95306.24
2023-01-17T15:15:01.752Z,95308.41
2023-01-17T15:18:14.743Z,95306.15
2023-01-17T15:21:21.403Z,95297.50
2023-01-17T15:24:34.569Z,95290.21
2023-01-17T15:27:38.751Z,95295.64
2023-01-17T15:31:05.810Z,95290.33
2023-01-17T15:34:22.692Z,95281.56
2023-01-17T15:37:40.671Z,95280.61
2023-01-17T15:40:45.830Z,95278.52
2023-01-17T15:43:48.847Z,95274.92
2023-01-17T15:46:51.746Z,95276.69
2023-01-17T15:49:54.700Z,95281.25
2023-01-17T15:53:01.186Z,95278.20
2023-01-17T15:56:33.706Z,95271.85
2023-01-17T15:59:45.675Z,95264.31
2023-01-17T16:02:55.418Z,95258.19
2023-01-17T16:06:03.170Z,95252.67
2023-01-17T16:09:22.545Z,95250.95
2023-01-17T16:12:25.447Z,95251.42
2023-01-17T16:15:29.725Z,95254.15
2023-01-17T16:18:32.722Z,95250.48
2023-01-17T16:21:35.644Z,95249.20
2023-01-17T16:24:38.770Z,95240.83
2023-01-17T16:27:43.258Z,95239.98
2023-01-17T16:30:48.632Z,95242.11
2023-01-17T16:33:51.980Z,95235.21
2023-01-17T16:36:54.909Z,95232.09
2023-01-17T16:39:57.887Z,95238.89
2023-01-17T16:43:01.085Z,95237.48
2023-01-17T16:46:04.149Z,95227.38
2023-01-17T16:49:07.137Z,95226.67
2023-01-17T16:52:10.070Z,95225.72
2023-01-17T16:55:16.467Z,95225.48
2023-01-17T16:58:20.497Z,95217.46
2023-01-17T17:01:23.643Z,95215.37
2023-01-17T17:04:26.681Z,95211.95
2023-01-17T17:07:29.641Z,95206.68
2023-01-17T17:10:32.605Z,95201.42
2023-01-17T17:13:36.498Z,95188.61
2023-01-17T17:16:39.601Z,95187.34
2023-01-17T17:19:44.980Z,95189.29
2023-01-17T17:22:52.098Z,95177.73
2023-01-17T17:25:56.575Z,95175.27
2023-01-17T17:28:59.717Z,95197.17
2023-01-17T17:32:02.654Z,95215.30
2023-01-17T17:35:06.237Z,95222.36
2023-01-17T17:38:09.378Z,95225.04
2023-01-17T17:41:12.294Z,95233.20
2023-01-17T17:44:15.335Z,95242.47
2023-01-17T17:47:18.418Z,95251.85
2023-01-17T17:50:21.355Z,95256.66
2023-01-17T17:53:25.011Z,95253.86
2023-01-17T17:56:30.065Z,95248.31
2023-01-17T17:59:33.333Z,95235.38
2023-01-17T18:02:36.297Z,95222.05
2023-01-17T18:05:39.240Z,95215.14
2023-01-17T18:08:42.349Z,95219.57
2023-01-17T18:11:45.328Z,95222.73
2023-01-17T18:14:48.247Z,95228.29
2023-01-17T18:17:52.714Z,95228.98
2023-01-17T18:20:55.806Z,95225.39
2023-01-17T18:24:26.693Z,95225.52
2023-01-17T18:28:54.752Z,95225.48
2023-01-17T18:34:11.113Z,95220.10
2023-01-17T18:37:14.141Z,95226.86
2023-01-17T18:40:17.416Z,95218.23
2023-01-17T18:43:20.397Z,95215.89
2023-01-17T18:46:26.146Z,95213.54
2023-01-17T18:49:29.528Z,95216.85
2023-01-17T18:52:34.065Z,95224.69
2023-01-17T18:55:36.913Z,95220.83
2023-01-17T18:58:42.575Z,95224.25
2023-01-17T19:01:46.163Z,95230.86
2023-01-17T19:04:49.431Z,95224.88
2023-01-17T19:07:52.715Z,95219.01
2023-01-17T19:10:55.949Z,95221.24
2023-01-17T19:13:59.300Z,95212.80
2023-01-17T19:17:02.389Z,95214.88
2023-01-17T19:20:07.215Z,95213.05
2023-01-17T19:23:10.349Z,95212.23
2023-01-17T19:26:16.966Z,95219.02
2023-01-17T19:29:19.984Z,95217.70
2023-01-17T19:32:22.912Z,95215.00
2023-01-17T19:35:25.991Z,95214.47
2023-01-17T19:38:28.929Z,95209.95
2023-01-17T19:41:34.045Z,95205.97
2023-01-17T19:44:37.082Z,95201.77
2023-01-17T19:47:40.615Z,95198.91
2023-01-17T19:50:43.505Z,95193.33
2023-01-17T19:53:46.655Z,95188.55
2023-01-17T19:56:49.749Z,95184.80
2023-01-17T19:59:52.624Z,95179.61
2023-01-17T20:02:55.550Z,95167.79
2023-01-17T20:05:58.785Z,95162.14
2023-01-17T20:09:01.905Z,95157.52
2023-01-17T20:12:05.454Z,95155.59
2023-01-17T20:15:08.817Z,95146.52
2023-01-17T20:18:12.966Z,95134.54
2023-01-17T20:21:21.581Z,95129.55
2023-01-17T20:24:24.760Z,95122.87
2023-01-17T20:27:28.294Z,95124.20
2023-01-17T20:30:33.094Z,95118.30
2023-01-17T20:33:36.684Z,95119.48
2023-01-17T20:36:41.822Z,95115.11
2023-01-17T20:39:45.569Z,95107.06
2023-01-17T20:42:48.649Z,95104.41
2023-01-17T20:45:55.829Z,95100.88
2023-01-17T20:49:01.202Z,95104.06
2023-01-17T20:52:06.106Z,95106.54
2023-01-17T20:55:09.618Z,95102.82
2023-01-17T20:58:12.615Z,95096.93
2023-01-17T21:01:21.400Z,95107.50
2023-01-17T21:04:26.108Z,95108.96
2023-01-17T21:07:42.478Z,95114.55
2023-01-17T21:10:49.144Z,95127.45
2023-01-17T21:13:52.026Z,95132.98
2023-01-17T21:16:55.026Z,95130.27
2023-01-17T21:19:57.945Z,95134.05
2023-01-17T21:23:00.846Z,95131.55
2023-01-17T21:26:12.085Z,95134.98
2023-01-17T21:29:16.303Z,95134.96
2023-01-17T21:32:20.054Z,95136.17
2023-01-17T21:35:22.983Z,95139.23
2023-01-17T21:38:26.494Z,95131.04
2023-01-17T21:41:31.855Z,95129.91
2023-01-17T21:44:36.499Z,95123.63
2023-01-17T21:47:44.678Z,95118.41
2023-01-17T21:50:47.589Z,95122.76
2023-01-17T21:53:50.770Z,95126.17
2023-01-17T21:57:12.460Z,95118.66
2023-01-17T22:00:15.998Z,95118.61
2023-01-17T22:03:18.855Z,95120.05
2023-01-17T22:06:24.001Z,95113.25
2023-01-17T22:09:26.987Z,95108.80
2023-01-17T22:12:29.791Z,95102.67
2023-01-17T22:15:36.554Z,95104.05
2023-01-17T22:18:41.539Z,95097.40
2023-01-17T22:21:44.384Z,95093.20
2023-01-17T22:24:47.402Z,95087.08
2023-01-17T22:27:50.301Z,95077.42
2023-01-17T22:30:53.256Z,95074.54
2023-01-17T22:34:01.949Z,95073.48
2023-01-17T22:37:10.157Z,95065.33
2023-01-17T22:40:13.582Z,95061.28
2023-01-17T22:43:16.565Z,95061.12
2023-01-17T22:46:27.820Z,95055.16
2023-01-17T22:49:30.867Z,95053.84
2023-01-17T22:52:33.817Z,95052.31
2023-01-17T22:55:36.733Z,95039.86
2023-01-17T22:58:50.593Z,95027.61
2023-01-17T23:01:53.795Z,95025.95
2023-01-17T23:04:56.724Z,95021.08
2023-01-17T23:08:02.117Z,95014.37
2023-01-17T23:11:44.027Z,95009.71
2023-01-17T23:15:05.653Z,95005.16
2023-01-17T23:18:28.185Z,95000.83
2023-01-17T23:21:51.042Z,94988.52
2023-01-17T23:25:04.109Z,94992.23
2023-01-17T23:28:14.601Z,94990.56
2023-01-17T23:31:17.599Z,94983.77
2023-01-17T23:34:20.702Z,94979.59
2023-01-17T23:37:48.108Z,94969.35
2023-01-17T23:41:17.488Z,94959.98
2023-01-17T23:44:20.447Z,94953.30
2023-01-17T23:47:23.522Z,94950.30
2023-01-17T23:50:26.607Z,94950.39
2023-01-17T23:53:29.445Z,94952.06
2023-01-17T23:56:32.309Z,94948.14
2023-01-17T23:59:35.258Z,94945.96
